Time;durP1;ratioP1;P1;durP2;ratioP2;P2;SDS_P1;SDS_P2;PMS_P1;PMS_P2;Temp;Humidity;BMP_temperature;BMP_pressure;BME280_temperature;BME280_humidity;BME280_pressure;Samples;Min_cycle;Max_cycle;Signal;HPM_P1;HPM_P2
2022/01/19 00:02:14;;;;;;;1.55;0.60;;;;;;;5.20;73.42;102362.38;4971174;28;20126;-82
2022/01/19 00:05:17;;;;;;;;;;;;;;;5.05;73.57;102368.44;4972275;28;20492;-82
2022/01/19 00:08:22;;;;;;;2.30;0.80;;;;;;;5.17;73.67;102377.94;4959442;28;19921;-82
2022/01/19 00:11:25;;;;;;;4.47;0.88;;;;;;;5.33;72.96;102374.47;4971091;28;20124;-82
2022/01/19 00:14:30;;;;;;;;;;;;;;;5.55;73.52;102374.44;4971289;28;20118;-82
2022/01/19 00:17:34;;;;;;;3.53;0.90;;;;;;;5.49;73.92;102366.69;4958924;28;19924;-83
2022/01/19 00:20:38;;;;;;;5.57;0.75;;;;;;;5.44;74.18;102350.25;4968319;28;20053;-82
2022/01/19 00:23:41;;;;;;;3.67;0.85;;;;;;;5.52;74.44;102343.28;4959797;28;20129;-82
2022/01/19 00:26:47;;;;;;;2.30;0.77;;;;;;;5.25;74.42;102313.09;4958889;28;20053;-82
2022/01/19 00:29:51;;;;;;;5.38;0.90;;;;;;;5.14;72.91;102305.34;4942248;28;20085;-82
2022/01/19 00:32:54;;;;;;;1.65;0.85;;;;;;;5.02;72.96;102310.53;4939468;28;20563;-82
2022/01/19 00:35:58;;;;;;;1.60;0.75;;;;;;;4.98;72.92;102324.34;4938817;28;20182;-82
2022/01/19 00:39:01;;;;;;;;;;;;;;;5.00;73.31;102328.66;4951106;28;20050;-82
2022/01/19 00:42:05;;;;;;;2.10;0.70;;;;;;;4.97;73.00;102322.63;4953842;28;19924;-82
2022/01/19 00:45:09;;;;;;;2.55;0.90;;;;;;;4.88;72.53;102331.25;4945294;28;20117;-82
2022/01/19 00:48:13;;;;;;;2.63;1.05;;;;;;;4.77;72.92;102336.44;4939552;29;20570;-82
2022/01/19 00:51:16;;;;;;;2.97;0.88;;;;;;;4.76;73.13;102339.91;4939201;29;20133;-82
2022/01/19 00:54:20;;;;;;;2.33;1.05;;;;;;;4.85;72.81;102337.31;4940731;29;20114;-82
2022/01/19 00:57:23;;;;;;;2.90;0.95;;;;;;;5.00;72.98;102339.03;4940801;29;20082;-82
2022/01/19 01:00:28;;;;;;;2.13;0.90;;;;;;;5.00;72.94;102325.22;4920327;29;20063;-82
2022/01/19 01:03:32;;;;;;;2.88;1.00;;;;;;;5.06;72.92;102328.66;4920825;29;20055;-82
2022/01/19 01:06:35;;;;;;;2.17;1.23;;;;;;;4.93;72.31;102320.91;4920743;29;20506;-82
2022/01/19 01:09:38;;;;;;;2.50;1.23;;;;;;;4.95;73.82;102320.03;4909174;29;20420;-82
2022/01/19 01:12:48;;;;;;;3.13;1.20;;;;;;;5.14;73.68;102326.09;4929897;28;20050;-82
2022/01/19 01:16:04;;;;;;;2.08;0.98;;;;;;;5.28;72.51;102313.94;4919532;29;20049;-82
2022/01/19 01:19:10;;;;;;;3.35;1.25;;;;;;;5.39;72.30;102302.69;4920008;29;20050;-82
2022/01/19 01:22:15;;;;;;;2.45;1.10;;;;;;;5.32;71.72;102294.91;4908867;29;20163;-82
2022/01/19 01:25:18;;;;;;;3.35;1.10;;;;;;;5.39;72.23;102294.91;4919395;29;20049;-82
2022/01/19 01:28:22;;;;;;;2.80;0.98;;;;;;;5.39;72.47;102287.13;4948372;28;20087;-82
2022/01/19 01:31:25;;;;;;;2.85;1.02;;;;;;;5.07;72.55;102277.66;4950430;29;20505;-82
2022/01/19 01:34:29;;;;;;;3.50;1.45;;;;;;;5.22;72.57;102251.72;4939149;29;20102;-82
2022/01/19 01:37:32;;;;;;;;;;;;;;;5.41;72.19;102243.88;4938699;29;20114;-82
2022/01/19 01:40:38;;;;;;;2.50;0.90;;;;;;;5.45;72.33;102243.84;4960809;28;19924;-82
2022/01/19 01:43:43;;;;;;;3.63;1.30;;;;;;;5.50;73.22;102249.06;4930015;29;20046;-82
2022/01/19 01:46:51;;;;;;;3.47;1.30;;;;;;;5.52;72.61;102244.69;4930186;29;20082;-82
2022/01/19 01:53:26;;;;;;;;;;;;;;;5.22;71.93;102256.91;4940242;28;20050;-82
2022/01/19 01:56:32;;;;;;;3.60;1.25;;;;;;;5.31;71.33;102253.44;4949072;28;19994;-82
2022/01/19 01:59:43;;;;;;;2.30;1.10;;;;;;;5.05;71.62;102241.38;4950019;28;20039;-82
2022/01/19 02:03:03;;;;;;;2.35;1.27;;;;;;;5.25;71.58;102235.28;4940078;28;20046;-82
2022/01/19 02:09:26;;;;;;;2.08;0.80;;;;;;;5.41;71.33;102225.72;4948770;28;20053;-82
2022/01/19 02:22:41;;;;;;;3.85;1.15;;;;;;;4.77;71.58;102191.31;4961244;28;20385;-82
2022/01/19 02:25:51;;;;;;;2.72;1.13;;;;;;;4.77;71.11;102193.91;4949094;28;20533;-82
2022/01/19 02:42:09;;;;;;;4.43;1.40;;;;;;;4.87;71.13;102174.88;4968645;28;20463;-82
2022/01/19 02:51:37;;;;;;;2.90;1.52;;;;;;;5.03;70.68;102162.75;4973062;28;20121;-82
2022/01/19 02:54:41;;;;;;;2.40;0.98;;;;;;;4.98;70.56;102158.44;4960381;28;20096;-82
2022/01/19 02:57:47;;;;;;;2.88;1.25;;;;;;;5.09;70.78;102156.69;4961361;28;20520;-82
2022/01/19 03:11:16;;;;;;;2.95;1.30;;;;;;;4.69;71.33;102124.81;4948405;28;20557;-82
2022/01/19 03:14:20;;;;;;;2.53;1.13;;;;;;;4.61;71.66;102117.06;4949086;28;20455;-82
2022/01/19 03:17:24;;;;;;;2.15;1.20;;;;;;;4.70;71.75;102117.06;4937879;28;20094;-82
2022/01/19 03:20:29;;;;;;;2.30;1.20;;;;;;;4.75;70.99;102104.94;4949368;28;20054;-82
2022/01/19 03:23:34;;;;;;;4.05;1.17;;;;;;;4.73;72.15;102078.19;4960494;28;20568;-82
2022/01/19 03:26:38;;;;;;;2.90;1.10;;;;;;;4.69;71.53;102076.47;4960451;28;20050;-82
2022/01/19 03:30:00;;;;;;;2.45;1.13;;;;;;;4.73;71.26;102075.59;4982149;28;20129;-82
2022/01/19 03:33:04;;;;;;;3.15;1.10;;;;;;;4.97;71.75;102078.94;4980664;28;20078;-82
2022/01/19 03:36:08;;;;;;;3.17;1.40;;;;;;;5.08;71.79;102088.41;4948301;28;20141;-82
2022/01/19 03:39:11;;;;;;;5.60;1.50;;;;;;;4.72;71.52;102078.16;4949509;28;20074;-82
2022/01/19 03:42:15;;;;;;;3.03;1.23;;;;;;;4.65;71.39;102079.91;4940917;28;20106;-82
2022/01/19 03:45:18;;;;;;;2.42;1.30;;;;;;;4.64;71.19;102076.47;4951132;28;20402;-82
2022/01/19 03:51:38;;;;;;;3.35;1.05;;;;;;;4.84;72.12;102057.41;4947617;28;20046;-82
2022/01/19 03:54:43;;;;;;;3.17;1.50;;;;;;;5.03;72.88;102053.00;4947878;28;20045;-82
2022/01/19 03:57:47;;;;;;;3.47;1.63;;;;;;;4.84;72.67;102047.03;4958889;28;20467;-82
2022/01/19 04:00:55;;;;;;;5.43;1.70;;;;;;;4.78;71.92;102037.53;4970243;28;20053;-82
2022/01/19 04:04:15;;;;;;;3.85;1.98;;;;;;;4.74;71.39;102022.88;4970980;28;20041;-82
2022/01/19 04:07:21;;;;;;;3.83;2.10;;;;;;;4.98;71.27;102008.06;4939317;28;20156;-82
2022/01/19 04:10:26;;;;;;;4.88;1.90;;;;;;;5.05;72.65;102009.78;4947058;28;20129;-82
2022/01/19 04:16:33;;;;;;;3.50;1.70;;;;;;;5.07;72.46;102006.31;4971524;28;20049;-82
2022/01/19 04:19:44;;;;;;;3.03;1.77;;;;;;;5.19;72.02;102013.16;4947847;28;20114;-82
2022/01/19 04:22:51;;;;;;;3.10;1.60;;;;;;;5.20;70.83;101999.34;4947615;28;20053;-82
2022/01/19 04:25:54;;;;;;;3.10;1.65;;;;;;;5.19;71.66;101986.34;4981590;28;20458;-82
2022/01/19 04:28:59;;;;;;;4.68;2.22;;;;;;;4.93;71.98;101977.00;4970884;28;20081;-82
2022/01/19 04:32:10;;;;;;;4.18;2.30;;;;;;;4.82;71.40;101966.72;4947799;28;20050;-82
2022/01/19 04:35:19;;;;;;;5.90;3.33;;;;;;;4.60;72.38;101945.22;4948259;28;20045;-82
2022/01/19 05:01:54;;;;;;;5.43;3.85;;;;;;;4.10;74.50;101920.38;4955507;28;20395;-84
2022/01/19 05:05:24;;;;;;;4.47;2.60;;;;;;;4.01;74.42;101928.19;4968897;28;20114;-83
2022/01/19 05:14:58;;;;;;;5.22;3.25;;;;;;;3.57;75.71;101947.22;4936286;28;20057;-83
2022/01/19 05:18:03;;;;;;;4.38;3.05;;;;;;;3.44;76.22;101964.47;4959488;28;20125;-84
2022/01/19 05:21:07;;;;;;;5.88;3.03;;;;;;;3.74;76.25;101965.31;4950380;28;20091;-84
2022/01/19 05:24:46;;;;;;;3.95;2.80;;;;;;;3.99;75.41;101962.69;4948361;28;20065;-83
2022/01/19 05:27:55;;;;;;;6.45;2.85;;;;;;;4.09;75.88;101959.25;4929060;28;20496;-84
2022/01/19 05:31:07;;;;;;;4.88;2.53;;;;;;;4.23;75.75;101969.53;4941170;28;20049;-84
2022/01/19 05:34:10;;;;;;;5.57;2.60;;;;;;;4.25;75.44;101958.31;4949485;28;20094;-83
2022/01/19 05:37:20;;;;;;;6.75;3.70;;;;;;;4.08;76.32;101949.72;4964705;28;20050;-84
2022/01/19 05:40:44;;;;;;;3.72;2.60;;;;;;;4.17;76.25;101949.69;4960189;28;20038;-83
2022/01/19 05:43:48;;;;;;;7.45;4.65;;;;;;;4.25;75.93;101952.28;4947346;28;20045;-83
2022/01/19 05:46:52;;;;;;;5.93;3.45;;;;;;;4.03;75.79;101943.72;4949692;28;20465;-83
2022/01/19 05:49:55;;;;;;;;;;;;;;;3.87;77.02;101938.56;4948800;28;20065;-83
2022/01/19 05:53:00;;;;;;;4.57;2.90;;;;;;;3.86;77.14;101934.28;4959123;28;20017;-79
2022/01/19 05:56:04;;;;;;;6.40;3.33;;;;;;;4.08;76.99;101929.88;4959279;28;20046;-79
2022/01/19 05:59:13;;;;;;;19.13;10.98;;;;;;;4.06;76.61;101936.81;4970841;28;20058;-79
2022/01/19 06:02:17;;;;;;;23.88;15.20;;;;;;;4.23;76.31;101920.34;4947880;28;20052;-79
2022/01/19 06:05:21;;;;;;;;;;;;;;;4.33;76.06;101922.88;4957785;28;20099;-80
2022/01/19 06:08:47;;;;;;;36.03;23.63;;;;;;;4.04;77.62;101911.78;4970618;28;19921;-79
2022/01/19 06:11:52;;;;;;;19.63;10.63;;;;;;;3.91;77.70;101917.00;4947040;28;20077;-80
2022/01/19 06:15:00;;;;;;;10.05;7.28;;;;;;;3.78;78.64;101920.47;4945797;28;20046;-79
2022/01/19 06:18:04;;;;;;;10.15;5.00;;;;;;;3.96;78.03;101920.44;4957950;28;20057;-80
2022/01/19 06:21:10;;;;;;;9.32;6.18;;;;;;;3.88;77.72;101914.41;4946384;28;20049;-80
2022/01/19 06:24:19;;;;;;;8.00;5.28;;;;;;;4.06;75.42;101899.72;4948118;28;20125;-79
2022/01/19 06:27:22;;;;;;;6.57;4.35;;;;;;;4.02;77.24;101897.97;4961507;28;20381;-79
2022/01/19 06:30:25;;;;;;;10.73;4.53;;;;;;;4.19;77.36;101898.78;4973861;28;20185;-80
2022/01/19 06:33:30;;;;;;;7.63;4.85;;;;;;;4.26;77.29;101891.84;4961463;28;20050;-80
2022/01/19 06:36:33;;;;;;;;;;;;;;;4.12;77.46;101884.16;4967578;28;20045;-80
2022/01/19 06:39:44;;;;;;;12.77;5.30;;;;;;;4.08;77.85;101878.09;4954396;28;19961;-80
2022/01/19 06:42:47;;;;;;;;;;;;;;;4.21;77.63;101876.31;4960097;28;20048;-80
2022/01/19 06:45:52;;;;;;;8.82;4.50;;;;;;;4.02;78.43;101877.28;4947431;28;20537;-80
2022/01/19 06:48:55;;;;;;;9.00;5.00;;;;;;;4.05;78.15;101866.91;4947279;28;20462;-80
2022/01/19 06:52:01;;;;;;;10.13;5.63;;;;;;;4.22;77.89;101872.03;4958851;28;20475;-80
2022/01/19 06:55:06;;;;;;;9.52;6.55;;;;;;;4.33;77.32;101863.31;4958548;28;20041;-80
2022/01/19 06:58:10;;;;;;;8.23;5.82;;;;;;;4.38;76.62;101860.72;4971968;28;20057;-80
2022/01/19 07:01:34;;;;;;;7.97;5.15;;;;;;;4.41;77.07;101851.22;4944416;28;20037;-80
2022/01/19 07:04:49;;;;;;;8.07;5.03;;;;;;;4.33;77.32;101842.63;4959397;28;20042;-80
2022/01/19 07:07:58;;;;;;;10.88;5.38;;;;;;;3.86;79.34;101841.13;4948552;28;20156;-81
2022/01/19 07:11:01;;;;;;;10.98;6.78;;;;;;;3.93;77.94;101834.19;4973097;28;20041;-79
2022/01/19 07:14:05;;;;;;;;;;;;;;;4.08;76.83;101841.00;4961957;28;20046;-80
2022/01/19 07:17:09;;;;;;;;;;;;;;;3.94;78.86;101836.75;4949438;28;20053;-79
2022/01/19 07:20:12;;;;;;;;;;;;;;;3.95;78.69;101835.88;4949856;28;19977;-80
2022/01/19 07:23:17;;;;;;;12.13;8.38;;;;;;;4.03;77.57;101832.44;4959604;28;19953;-80
2022/01/19 07:26:21;;;;;;;7.68;4.80;;;;;;;4.21;77.42;101832.31;4948928;28;20473;-80
2022/01/19 07:29:24;;;;;;;10.48;4.25;;;;;;;4.35;77.57;101827.09;4972110;28;20091;-80
2022/01/19 07:32:34;;;;;;;9.50;4.10;;;;;;;4.32;77.80;101815.00;4948942;28;20054;-80
2022/01/19 07:35:37;;;;;;;8.40;5.70;;;;;;;3.85;76.74;101818.69;4948029;28;20561;-80
2022/01/19 07:38:41;;;;;;;8.20;5.28;;;;;;;3.97;77.00;101817.78;4954394;28;20401;-80
2022/01/19 07:41:44;;;;;;;7.68;4.25;;;;;;;3.95;77.18;101830.72;4960055;28;20049;-80
2022/01/19 07:45:23;;;;;;;7.68;4.60;;;;;;;3.88;77.07;101823.84;4959412;28;20049;-80
2022/01/19 07:48:45;;;;;;;6.28;4.57;;;;;;;3.87;77.47;101824.72;4971281;28;20110;-80
2022/01/19 07:52:07;;;;;;;8.05;4.22;;;;;;;3.86;77.63;101824.72;4973321;28;20129;-80
2022/01/19 07:55:31;;;;;;;10.45;4.72;;;;;;;3.80;77.19;101814.38;4971010;28;20093;-80
2022/01/19 07:59:02;;;;;;;6.60;5.07;;;;;;;3.74;76.57;101807.53;4959473;28;20101;-80
2022/01/19 08:02:32;;;;;;;8.82;5.35;;;;;;;3.57;76.94;101806.69;4970933;28;20050;-80
2022/01/19 08:05:51;;;;;;;8.48;6.03;;;;;;;3.55;76.62;101806.72;4968774;28;20134;-80
2022/01/19 08:08:56;;;;;;;10.50;6.10;;;;;;;3.53;76.95;101800.69;4960385;28;20397;-79
2022/01/19 08:12:03;;;;;;;10.45;5.72;;;;;;;3.43;76.94;101806.75;4948922;28;20085;-80
2022/01/19 08:15:13;;;;;;;15.63;6.90;;;;;;;3.19;77.38;101808.53;4938572;28;20042;-80
2022/01/19 08:18:27;;;;;;;8.35;6.40;;;;;;;3.31;77.40;101804.19;4962009;28;20560;-79
2022/01/19 08:21:36;;;;;;;8.63;6.35;;;;;;;3.35;77.13;101804.19;4951253;28;20074;-79
2022/01/19 08:24:41;;;;;;;10.80;6.22;;;;;;;3.13;77.66;101800.78;4941863;28;20043;-80
2022/01/19 08:27:45;;;;;;;10.30;6.03;;;;;;;3.13;77.50;101799.91;4940727;28;20089;-79
2022/01/19 08:30:53;;;;;;;12.00;6.85;;;;;;;3.12;78.09;101790.41;4929316;28;20077;-79
2022/01/19 08:34:23;;;;;;;9.13;5.72;;;;;;;3.20;77.58;101781.81;4932169;28;20134;-80
2022/01/19 08:37:45;;;;;;;10.55;5.65;;;;;;;3.24;77.67;101777.47;4958145;28;20048;-79
2022/01/19 08:40:49;;;;;;;11.30;6.10;;;;;;;3.18;77.65;101761.97;4947817;28;20057;-80
2022/01/19 08:44:04;;;;;;;10.75;6.53;;;;;;;3.25;78.06;101755.94;4958963;28;20069;-80
2022/01/19 08:47:09;;;;;;;13.73;6.32;;;;;;;3.15;78.46;101756.81;4958529;28;20064;-79
2022/01/19 08:50:14;;;;;;;;;;;;;;;3.09;77.97;101755.09;4958181;28;20118;-79
2022/01/19 08:53:41;;;;;;;10.02;6.40;;;;;;;3.10;77.93;101749.09;4958639;28;20399;-80
2022/01/19 08:57:04;;;;;;;11.88;6.90;;;;;;;3.09;78.33;101746.50;4967764;28;20041;-80
2022/01/19 09:00:10;;;;;;;11.82;7.43;;;;;;;2.76;79.30;101738.78;4958056;28;20118;-80
2022/01/19 12:06:50;;;;;;;20.83;15.70;;;;;;;4.17;72.54;101496.69;5040108;28;20629;-80
2022/01/19 12:10:03;;;;;;;17.00;12.55;;;;;;;3.91;72.68;101482.28;5037396;28;20512;-79
2022/01/19 12:13:54;;;;;;;19.15;11.75;;;;;;;3.99;72.63;101483.91;5026015;28;20075;-79
2022/01/19 12:17:24;;;;;;;14.77;10.95;;;;;;;3.85;72.85;101479.75;5030021;28;20106;-79
2022/01/19 12:20:57;;;;;;;17.52;11.93;;;;;;;4.01;72.87;101469.25;5048507;28;20056;-79
2022/01/19 12:24:32;;;;;;;27.85;21.48;;;;;;;3.82;72.10;101474.59;5049869;28;20060;-79
2022/01/19 12:27:53;;;;;;;12.93;8.70;;;;;;;3.74;72.31;101476.41;5047931;28;20072;-79
2022/01/19 12:31:22;;;;;;;11.63;7.88;;;;;;;3.63;72.50;101471.31;5040517;28;20047;-80
2022/01/19 12:35:10;;;;;;;12.30;9.10;;;;;;;3.67;72.68;101473.03;5047086;28;20036;-80
2022/01/19 12:38:30;;;;;;;9.25;6.90;;;;;;;3.60;71.79;101471.34;5033645;28;20709;-81
2022/01/19 12:41:58;;;;;;;8.00;5.80;;;;;;;3.33;71.94;101453.47;5052173;28;20047;-81
2022/01/19 12:45:44;;;;;;;12.75;8.15;;;;;;;3.40;71.56;101457.72;5053011;28;20048;-81
2022/01/19 12:48:57;;;;;;;8.52;6.18;;;;;;;3.35;71.69;101443.97;5033708;28;20059;-81
2022/01/19 12:52:14;;;;;;;11.35;6.90;;;;;;;3.40;72.12;101437.88;5020014;28;20040;-81
2022/01/19 12:55:25;;;;;;;9.02;6.22;;;;;;;3.31;71.98;101431.94;5018649;28;20103;-82
2022/01/19 12:58:36;;;;;;;7.43;5.13;;;;;;;3.17;72.70;101434.63;5032446;28;20079;-82
2022/01/19 13:01:44;;;;;;;8.10;5.70;;;;;;;3.09;73.39;101434.66;5031511;28;20047;-81
2022/01/19 13:04:50;;;;;;;8.27;5.72;;;;;;;3.14;73.13;101426.91;5020143;28;20144;-80
2022/01/19 13:08:02;;;;;;;8.10;6.53;;;;;;;3.21;72.42;101418.22;5009992;28;20084;-79
2022/01/19 13:11:38;;;;;;;11.88;8.93;;;;;;;3.31;72.28;101417.28;5028102;28;20100;-80
2022/01/19 13:15:00;;;;;;;8.45;6.05;;;;;;;3.16;73.41;101415.69;5028920;28;20060;-81
2022/01/19 13:18:29;;;;;;;10.07;6.15;;;;;;;3.22;72.74;101419.94;5028824;28;20057;-81
2022/01/19 13:21:39;;;;;;;10.90;8.18;;;;;;;3.28;73.06;101417.31;5040480;28;20044;-81
2022/01/19 13:24:59;;;;;;;36.58;25.30;;;;;;;3.39;72.93;101419.81;5002296;28;20047;-81
2022/01/19 13:28:14;;;;;;;12.13;8.82;;;;;;;3.25;73.09;101419.91;5029363;28;20096;-81
2022/01/19 13:31:41;;;;;;;17.60;13.43;;;;;;;3.10;73.62;101420.91;5029008;28;20060;-79
2022/01/19 13:35:00;;;;;;;10.88;8.73;;;;;;;3.00;74.15;101417.53;5027407;28;20423;-81
2022/01/19 13:38:13;;;;;;;7.32;5.13;;;;;;;2.91;74.08;101412.41;5029918;28;20119;-78
2022/01/19 13:41:23;;;;;;;9.02;5.80;;;;;;;2.92;74.71;101403.78;5017486;28;20053;-78
2022/01/19 13:44:36;;;;;;;7.05;4.60;;;;;;;3.02;74.41;101407.16;5028949;28;20121;-80
2022/01/19 13:48:04;;;;;;;9.85;6.70;;;;;;;3.07;74.77;101407.16;5027486;28;20055;-81
2022/01/19 13:51:17;;;;;;;7.15;5.13;;;;;;;3.01;74.98;101408.03;5028687;28;20048;-81
2022/01/19 13:54:30;;;;;;;7.00;4.88;;;;;;;2.89;75.49;101408.97;5016522;28;20415;-81
2022/01/19 13:57:36;;;;;;;7.70;5.22;;;;;;;2.67;76.83;101415.13;5028619;28;20047;-81
2022/01/19 14:00:52;;;;;;;8.85;6.05;;;;;;;2.74;77.69;101421.97;5014258;28;20406;-80
2022/01/19 14:04:04;;;;;;;7.95;5.60;;;;;;;2.68;78.81;101424.59;5027086;28;20063;-81
2022/01/19 14:07:14;;;;;;;7.85;5.63;;;;;;;2.55;79.25;101423.78;5026173;28;20060;-81
2022/01/19 14:10:26;;;;;;;10.43;6.38;;;;;;;2.50;79.32;101413.50;5026689;28;20108;-81
2022/01/19 14:13:41;;;;;;;12.95;7.10;;;;;;;2.68;79.77;101409.09;5026979;28;20087;-81
2022/01/19 14:16:53;;;;;;;12.73;8.15;;;;;;;2.61;79.43;101407.41;5026400;28;20111;-81
2022/01/19 14:20:04;;;;;;;10.25;7.50;;;;;;;2.61;79.77;101395.34;5015104;28;20451;-80
2022/01/19 14:23:15;;;;;;;10.57;8.20;;;;;;;2.77;79.63;101399.56;5015737;28;20230;-81
2022/01/19 14:26:30;;;;;;;11.20;8.43;;;;;;;2.79;79.81;101384.94;5016172;28;20049;-81
2022/01/19 14:29:58;;;;;;;10.65;8.30;;;;;;;2.97;79.00;101377.94;5027434;28;20404;-81
2022/01/19 14:33:14;;;;;;;9.35;6.93;;;;;;;2.90;78.53;101378.81;5028102;28;20522;-80
2022/01/19 14:36:32;;;;;;;11.43;8.27;;;;;;;2.86;78.68;101383.16;5026976;28;20596;-81
2022/01/19 14:39:54;;;;;;;13.55;7.30;;;;;;;3.11;78.05;101373.50;5025257;28;20044;-81
2022/01/19 14:42:59;;;;;;;11.70;7.30;;;;;;;2.89;78.54;101372.81;5025531;28;20049;-81
2022/01/19 14:46:18;;;;;;;10.93;8.15;;;;;;;3.01;78.16;101364.13;5029683;28;20323;-81
2022/01/19 14:49:33;;;;;;;8.88;6.72;;;;;;;2.90;77.71;101356.44;5032086;28;20048;-81
2022/01/19 14:52:51;;;;;;;10.35;6.60;;;;;;;3.13;77.95;101355.44;5030406;28;20105;-81
2022/01/19 14:56:05;;;;;;;10.32;6.30;;;;;;;3.31;76.95;101350.06;5029922;28;20561;-81
2022/01/19 14:59:23;;;;;;;9.90;6.57;;;;;;;3.30;77.91;101343.19;5028803;28;20056;-81
2022/01/19 15:02:39;;;;;;;13.88;9.73;;;;;;;3.09;77.72;101344.22;5031634;28;20072;-81
2022/01/19 15:05:58;;;;;;;10.85;7.25;;;;;;;2.80;78.92;101340.16;5030824;28;20568;-81
2022/01/19 15:09:12;;;;;;;11.02;7.35;;;;;;;2.91;79.53;101345.25;5018936;28;20415;-81
2022/01/19 15:12:22;;;;;;;10.73;6.93;;;;;;;3.04;79.34;101356.34;5007676;28;20050;-81
2022/01/19 15:15:30;;;;;;;8.63;5.18;;;;;;;2.99;78.84;101353.78;5029594;28;20092;-81
2022/01/19 15:18:36;;;;;;;13.80;7.05;;;;;;;3.10;79.42;101348.56;5029295;28;20143;-81
2022/01/19 15:21:50;;;;;;;11.07;7.80;;;;;;;3.00;79.45;101354.66;5030301;28;20080;-81
2022/01/19 15:25:58;;;;;;;10.52;7.22;;;;;;;2.88;80.70;101340.09;5029367;28;20057;-81
2022/01/19 15:29:11;;;;;;;12.15;6.93;;;;;;;2.96;81.02;101332.28;5007253;28;20087;-81
2022/01/19 15:32:21;;;;;;;8.30;6.18;;;;;;;3.01;80.15;101330.53;5023539;28;20107;-81
2022/01/19 15:35:29;;;;;;;11.20;6.00;;;;;;;3.00;80.62;101334.00;5017675;28;20577;-81
2022/01/19 15:38:44;;;;;;;9.77;6.40;;;;;;;2.93;81.04;101335.75;4985944;28;20111;-80
2022/01/19 15:41:50;;;;;;;15.38;6.85;;;;;;;3.01;81.05;101333.13;5028695;28;20095;-81
2022/01/19 15:44:57;;;;;;;11.45;6.55;;;;;;;3.19;80.71;101322.63;5008977;28;20049;-81
2022/01/19 15:48:08;;;;;;;12.30;8.02;;;;;;;3.34;80.73;101324.19;5009087;28;20044;-82
2022/01/19 15:51:15;;;;;;;17.77;12.02;;;;;;;2.97;80.54;101319.38;4998601;28;20052;-82
2022/01/19 15:54:21;;;;;;;17.88;10.95;;;;;;;2.88;81.16;101324.59;5002695;28;20044;-82
2022/01/19 15:57:26;;;;;;;17.05;13.77;;;;;;;3.05;81.69;101321.03;5004733;28;20057;-80
2022/01/19 16:00:42;;;;;;;40.08;25.85;;;;;;;2.86;82.10;101321.16;5025859;28;20052;-79
2022/01/19 16:03:49;;;;;;;21.40;15.65;;;;;;;2.93;81.97;101311.63;5028682;28;20123;-79
2022/01/19 16:06:57;;;;;;;14.25;10.15;;;;;;;2.99;81.61;101307.28;5032894;28;20310;-80
2022/01/19 16:10:08;;;;;;;12.32;8.65;;;;;;;3.02;81.30;101307.25;5046974;28;20044;-80
2022/01/19 16:13:21;;;;;;;;;;;;;;;2.84;81.83;101303.97;5049821;28;20048;-80
2022/01/19 16:16:31;;;;;;;35.92;20.58;;;;;;;2.83;81.79;101308.28;5049461;28;19990;-80
2022/01/19 16:19:35;;;;;;;17.00;10.55;;;;;;;3.08;81.04;101287.41;5031743;28;20040;-80
2022/01/19 16:26:07;;;;;;;22.95;17.05;;;;;;;3.03;81.54;101290.91;5048295;28;20067;-80
2022/01/19 16:29:12;;;;;;;23.30;18.35;;;;;;;2.95;80.66;101295.25;5032287;28;20087;-80
2022/01/19 16:32:23;;;;;;;11.00;8.57;;;;;;;3.03;81.33;101298.66;5032253;28;20190;-80
2022/01/19 16:35:33;;;;;;;14.25;11.18;;;;;;;3.04;80.97;101302.09;5047332;28;20103;-80
2022/01/19 16:38:45;;;;;;;12.48;9.60;;;;;;;3.12;80.70;101296.84;5033310;28;20047;-80
2022/01/19 16:42:02;;;;;;;12.48;8.90;;;;;;;3.09;80.63;101291.69;5035288;28;20410;-80
2022/01/19 16:45:10;;;;;;;11.80;9.27;;;;;;;3.15;80.57;101291.66;5044104;28;20036;-79
2022/01/19 16:48:21;;;;;;;18.65;13.10;;;;;;;3.01;80.55;101305.56;5020837;28;20118;-80
2022/01/19 16:51:28;;;;;;;11.50;8.07;;;;;;;2.96;80.57;101306.44;5046164;28;20090;-80
2022/01/19 16:54:39;;;;;;;13.30;8.93;;;;;;;3.16;80.53;101306.28;5046507;28;20052;-79
2022/01/19 16:57:46;;;;;;;12.88;9.57;;;;;;;3.22;80.80;101306.22;5034252;28;20103;-79
2022/01/19 17:00:57;;;;;;;21.75;13.93;;;;;;;3.34;80.46;101303.50;5047622;28;20048;-80
2022/01/19 17:04:23;;;;;;;15.80;11.15;;;;;;;3.20;80.23;101305.41;5048185;28;20099;-80
2022/01/19 17:07:36;;;;;;;19.15;12.90;;;;;;;3.01;80.97;101294.38;5046724;28;20569;-80
2022/01/19 17:11:06;;;;;;;15.98;11.60;;;;;;;3.13;80.71;101283.91;5032822;28;20544;-80
2022/01/19 17:14:23;;;;;;;15.70;11.70;;;;;;;3.20;80.19;101289.88;5045475;28;20044;-80
2022/01/19 17:17:45;;;;;;;17.20;12.55;;;;;;;3.15;80.12;101291.66;5019349;28;20409;-81
2022/01/19 17:20:50;;;;;;;19.92;14.30;;;;;;;3.14;80.32;101295.09;5047263;28;20520;-81
2022/01/19 17:24:00;;;;;;;15.45;11.48;;;;;;;3.22;79.76;101296.75;5021579;28;20044;-81
2022/01/19 17:27:17;;;;;;;14.27;9.57;;;;;;;3.36;79.09;101293.19;5047706;28;20795;-81
2022/01/19 17:30:58;;;;;;;15.65;11.10;;;;;;;3.29;78.99;101294.97;5047121;28;20102;-81
2022/01/19 17:34:05;;;;;;;18.67;13.43;;;;;;;3.36;79.49;101286.28;5023042;28;20127;-82
2022/01/19 17:37:17;;;;;;;;;;;;;;;3.20;79.42;101290.75;5042484;28;20516;-81
2022/01/19 17:40:26;;;;;;;18.23;12.60;;;;;;;3.24;79.28;101281.22;5031752;28;19970;-81
2022/01/19 17:43:38;;;;;;;15.82;12.43;;;;;;;3.26;79.79;101287.25;5022799;28;20049;-81
2022/01/19 17:47:35;;;;;;;17.67;12.65;;;;;;;3.33;78.98;101296.63;5022190;28;20062;-81
2022/01/19 17:50:48;;;;;;;16.85;12.65;;;;;;;3.46;78.34;101293.06;5016278;28;20067;-82
2022/01/19 17:54:01;;;;;;;13.98;11.05;;;;;;;3.36;78.52;101293.19;5005502;28;20411;-81
2022/01/19 17:57:27;;;;;;;17.85;12.93;;;;;;;3.28;79.83;101303.56;5019236;28;20056;-81
2022/01/19 18:00:38;;;;;;;15.75;10.75;;;;;;;3.18;80.89;101305.38;5005597;28;20068;-81
2022/01/19 18:03:45;;;;;;;17.20;13.80;;;;;;;3.24;80.96;101300.16;5022924;28;20576;-81
2022/01/19 18:06:50;;;;;;;17.10;12.50;;;;;;;3.29;81.39;101299.25;5049346;28;20077;-81
2022/01/19 18:09:54;;;;;;;16.88;11.30;;;;;;;3.19;82.19;101301.97;5056452;28;20106;-81
2022/01/19 18:13:01;;;;;;;16.13;11.60;;;;;;;3.01;82.50;101305.56;5056664;28;20184;-81
2022/01/19 18:16:16;;;;;;;17.00;12.40;;;;;;;3.16;83.12;101294.22;5045447;28;20556;-82
2022/01/19 18:19:20;;;;;;;14.15;11.50;;;;;;;3.15;82.96;101292.50;5015365;28;20048;-81
2022/01/19 18:22:29;;;;;;;16.15;11.82;;;;;;;3.19;82.81;101288.16;5005916;28;20044;-81
2022/01/19 18:25:36;;;;;;;17.58;14.77;;;;;;;3.18;82.90;101283.88;5016742;28;20526;-81
2022/01/19 18:29:01;;;;;;;15.45;11.52;;;;;;;3.28;83.21;101285.47;5006809;28;20076;-81
2022/01/19 18:32:10;;;;;;;14.30;10.88;;;;;;;3.14;83.56;101282.19;5048901;28;20061;-81
2022/01/19 18:35:24;;;;;;;19.23;13.20;;;;;;;3.27;83.03;101283.78;5032176;28;20068;-81
2022/01/19 18:38:39;;;;;;;17.17;11.65;;;;;;;3.34;83.77;101282.84;5031736;28;20043;-81
2022/01/19 18:42:01;;;;;;;14.73;11.27;;;;;;;3.23;83.65;101276.94;5051460;28;20052;-81
2022/01/19 18:45:12;;;;;;;13.98;10.32;;;;;;;3.33;82.66;101273.38;5034680;28;20055;-77
2022/01/19 18:48:23;;;;;;;17.33;12.27;;;;;;;3.21;83.61;101282.09;5035300;28;20095;-79
2022/01/19 18:51:37;;;;;;;14.85;10.73;;;;;;;3.24;83.79;101283.81;5023937;28;20047;-77
2022/01/19 18:54:48;;;;;;;13.82;10.88;;;;;;;3.19;83.46;101278.69;5034613;28;20055;-81
2022/01/19 18:57:53;;;;;;;13.18;10.95;;;;;;;3.14;83.07;101284.78;5022446;28;20099;-81
2022/01/19 19:01:03;;;;;;;15.75;12.18;;;;;;;3.11;83.72;101280.47;5010344;28;20577;-81
2022/01/19 19:04:07;;;;;;;13.38;10.65;;;;;;;3.14;83.01;101285.63;5001532;28;20146;-81
2022/01/19 19:07:14;;;;;;;17.25;13.75;;;;;;;3.02;84.25;101281.41;5003092;28;20145;-81
2022/01/19 19:10:40;;;;;;;17.35;12.48;;;;;;;2.99;84.56;101281.44;5015871;28;20180;-81
2022/01/19 19:13:46;;;;;;;14.57;11.45;;;;;;;3.06;84.60;101266.75;4993368;28;20084;-81
2022/01/19 19:16:56;;;;;;;12.73;9.32;;;;;;;2.92;84.52;101274.63;5004554;28;20025;-81
2022/01/19 19:20:05;;;;;;;12.20;8.90;;;;;;;3.12;84.04;101271.00;5011247;28;20566;-81
2022/01/19 19:23:10;;;;;;;14.40;10.45;;;;;;;3.09;84.14;101258.09;5016125;28;20052;-81
2022/01/19 19:26:15;;;;;;;10.35;9.00;;;;;;;3.16;84.04;101252.00;5004129;28;20041;-81
2022/01/19 19:29:29;;;;;;;11.45;9.40;;;;;;;3.11;84.31;101275.31;5015901;28;20052;-81